sensor_id;sensor_type;location;lat;lon;timestamp;P1;durP1;ratioP1;P2;durP2;ratioP2
42018;SDS011;27703;51.980;5.848;2023-04-25T00:01:37;7.43;;;0.70;;
42018;SDS011;27703;51.980;5.848;2023-04-25T00:04:03;10.82;;;1.77;;
42018;SDS011;27703;51.980;5.848;2023-04-25T00:06:30;7.13;;;0.60;;
42018;SDS011;27703;51.980;5.848;2023-04-25T00:08:57;2.55;;;0.43;;
42018;SDS011;27703;51.980;5.848;2023-04-25T00:11:23;4.90;;;0.85;;
42018;SDS011;27703;51.980;5.848;2023-04-25T00:13:49;8.15;;;1.02;;
42018;SDS011;27703;51.980;5.848;2023-04-25T00:16:17;9.73;;;0.70;;
42018;SDS011;27703;51.980;5.848;2023-04-25T00:18:43;4.95;;;0.77;;
42018;SDS011;27703;51.980;5.848;2023-04-25T00:21:11;7.97;;;0.77;;
42018;SDS011;27703;51.980;5.848;2023-04-25T00:23:36;6.00;;;0.55;;
42018;SDS011;27703;51.980;5.848;2023-04-25T00:26:03;4.30;;;0.77;;
42018;SDS011;27703;51.980;5.848;2023-04-25T00:28:29;5.13;;;0.93;;
42018;SDS011;27703;51.980;5.848;2023-04-25T00:30:55;3.50;;;0.50;;
42018;SDS011;27703;51.980;5.848;2023-04-25T00:33:20;4.43;;;0.70;;
42018;SDS011;27703;51.980;5.848;2023-04-25T00:35:46;5.25;;;0.95;;
42018;SDS011;27703;51.980;5.848;2023-04-25T00:38:11;5.28;;;0.60;;
42018;SDS011;27703;51.980;5.848;2023-04-25T00:40:37;6.25;;;1.17;;
42018;SDS011;27703;51.980;5.848;2023-04-25T00:43:02;4.85;;;0.50;;
42018;SDS011;27703;51.980;5.848;2023-04-25T00:45:29;8.75;;;1.10;;
42018;SDS011;27703;51.980;5.848;2023-04-25T00:47:55;7.75;;;0.80;;
42018;SDS011;27703;51.980;5.848;2023-04-25T00:50:21;11.10;;;1.00;;
42018;SDS011;27703;51.980;5.848;2023-04-25T00:52:47;6.90;;;0.60;;
42018;SDS011;27703;51.980;5.848;2023-04-25T00:55:13;3.20;;;0.65;;
42018;SDS011;27703;51.980;5.848;2023-04-25T00:57:40;13.20;;;1.63;;
42018;SDS011;27703;51.980;5.848;2023-04-25T01:00:05;5.18;;;0.80;;
42018;SDS011;27703;51.980;5.848;2023-04-25T01:02:32;8.98;;;0.65;;
42018;SDS011;27703;51.980;5.848;2023-04-25T01:04:58;7.35;;;0.90;;
42018;SDS011;27703;51.980;5.848;2023-04-25T01:07:24;5.78;;;0.88;;
42018;SDS011;27703;51.980;5.848;2023-04-25T01:09:51;6.30;;;0.93;;
42018;SDS011;27703;51.980;5.848;2023-04-25T01:12:17;6.75;;;0.60;;
42018;SDS011;27703;51.980;5.848;2023-04-25T01:14:42;5.78;;;0.65;;
42018;SDS011;27703;51.980;5.848;2023-04-25T01:17:08;5.30;;;0.65;;
42018;SDS011;27703;51.980;5.848;2023-04-25T01:19:35;7.97;;;1.08;;
42018;SDS011;27703;51.980;5.848;2023-04-25T01:22:00;12.85;;;1.25;;
42018;SDS011;27703;51.980;5.848;2023-04-25T01:24:26;5.75;;;1.25;;
42018;SDS011;27703;51.980;5.848;2023-04-25T01:26:52;6.70;;;0.93;;
42018;SDS011;27703;51.980;5.848;2023-04-25T01:29:21;11.98;;;2.08;;
42018;SDS011;27703;51.980;5.848;2023-04-25T01:31:47;4.95;;;0.60;;
42018;SDS011;27703;51.980;5.848;2023-04-25T01:34:12;3.22;;;0.90;;
42018;SDS011;27703;51.980;5.848;2023-04-25T01:36:38;8.18;;;1.17;;
42018;SDS011;27703;51.980;5.848;2023-04-25T01:39:04;7.18;;;1.48;;
42018;SDS011;27703;51.980;5.848;2023-04-25T01:41:30;7.05;;;1.20;;
42018;SDS011;27703;51.980;5.848;2023-04-25T01:43:56;7.93;;;1.10;;
42018;SDS011;27703;51.980;5.848;2023-04-25T01:46:22;6.32;;;1.38;;
42018;SDS011;27703;51.980;5.848;2023-04-25T01:48:48;8.27;;;1.05;;
42018;SDS011;27703;51.980;5.848;2023-04-25T01:51:13;7.72;;;1.17;;
42018;SDS011;27703;51.980;5.848;2023-04-25T01:53:40;6.57;;;0.88;;
42018;SDS011;27703;51.980;5.848;2023-04-25T01:56:06;5.75;;;1.17;;
42018;SDS011;27703;51.980;5.848;2023-04-25T01:58:31;5.20;;;1.08;;
42018;SDS011;27703;51.980;5.848;2023-04-25T02:00:57;9.65;;;1.10;;
42018;SDS011;27703;51.980;5.848;2023-04-25T02:03:22;6.60;;;1.33;;
42018;SDS011;27703;51.980;5.848;2023-04-25T02:05:48;5.32;;;1.00;;
42018;SDS011;27703;51.980;5.848;2023-04-25T02:08:14;6.00;;;1.23;;
42018;SDS011;27703;51.980;5.848;2023-04-25T02:10:41;12.60;;;1.35;;
42018;SDS011;27703;51.980;5.848;2023-04-25T02:13:07;14.65;;;2.17;;
42018;SDS011;27703;51.980;5.848;2023-04-25T02:15:32;10.02;;;1.00;;
42018;SDS011;27703;51.980;5.848;2023-04-25T02:17:58;8.00;;;1.88;;
42018;SDS011;27703;51.980;5.848;2023-04-25T02:20:25;7.82;;;1.70;;
42018;SDS011;27703;51.980;5.848;2023-04-25T02:22:51;11.43;;;1.27;;
42018;SDS011;27703;51.980;5.848;2023-04-25T02:25:17;11.88;;;1.17;;
42018;SDS011;27703;51.980;5.848;2023-04-25T02:27:44;8.10;;;1.23;;
42018;SDS011;27703;51.980;5.848;2023-04-25T02:30:11;7.75;;;1.20;;
42018;SDS011;27703;51.980;5.848;2023-04-25T02:32:37;9.30;;;1.08;;
42018;SDS011;27703;51.980;5.848;2023-04-25T02:35:03;9.63;;;1.73;;
42018;SDS011;27703;51.980;5.848;2023-04-25T02:37:32;12.95;;;1.17;;
42018;SDS011;27703;51.980;5.848;2023-04-25T02:39:59;8.63;;;1.70;;
42018;SDS011;27703;51.980;5.848;2023-04-25T02:42:25;8.52;;;1.27;;
42018;SDS011;27703;51.980;5.848;2023-04-25T02:44:51;6.55;;;1.38;;
42018;SDS011;27703;51.980;5.848;2023-04-25T02:47:17;8.75;;;1.02;;
42018;SDS011;27703;51.980;5.848;2023-04-25T02:49:42;4.45;;;0.90;;
42018;SDS011;27703;51.980;5.848;2023-04-25T02:52:08;6.93;;;1.05;;
42018;SDS011;27703;51.980;5.848;2023-04-25T02:54:33;8.98;;;1.30;;
42018;SDS011;27703;51.980;5.848;2023-04-25T02:56:59;7.63;;;1.02;;
42018;SDS011;27703;51.980;5.848;2023-04-25T02:59:25;6.25;;;1.10;;
42018;SDS011;27703;51.980;5.848;2023-04-25T03:01:51;9.60;;;1.13;;
42018;SDS011;27703;51.980;5.848;2023-04-25T03:04:16;9.32;;;1.25;;
42018;SDS011;27703;51.980;5.848;2023-04-25T03:06:44;10.50;;;1.50;;
42018;SDS011;27703;51.980;5.848;2023-04-25T03:09:09;10.48;;;1.13;;
42018;SDS011;27703;51.980;5.848;2023-04-25T03:11:35;6.57;;;1.00;;
42018;SDS011;27703;51.980;5.848;2023-04-25T03:14:01;6.10;;;0.75;;
42018;SDS011;27703;51.980;5.848;2023-04-25T03:16:27;4.38;;;1.00;;
42018;SDS011;27703;51.980;5.848;2023-04-25T03:18:52;7.55;;;0.88;;
42018;SDS011;27703;51.980;5.848;2023-04-25T03:21:18;8.98;;;1.38;;
42018;SDS011;27703;51.980;5.848;2023-04-25T03:23:43;8.20;;;1.30;;
42018;SDS011;27703;51.980;5.848;2023-04-25T03:26:09;7.15;;;1.67;;
42018;SDS011;27703;51.980;5.848;2023-04-25T03:28:35;8.73;;;1.50;;
42018;SDS011;27703;51.980;5.848;2023-04-25T03:31:00;12.88;;;1.02;;
42018;SDS011;27703;51.980;5.848;2023-04-25T03:33:26;7.90;;;0.85;;
42018;SDS011;27703;51.980;5.848;2023-04-25T03:35:51;10.75;;;1.13;;
42018;SDS011;27703;51.980;5.848;2023-04-25T03:38:17;7.13;;;1.45;;
42018;SDS011;27703;51.980;5.848;2023-04-25T03:40:43;12.52;;;1.20;;
42018;SDS011;27703;51.980;5.848;2023-04-25T03:43:09;10.88;;;1.23;;
42018;SDS011;27703;51.980;5.848;2023-04-25T03:45:34;7.32;;;1.00;;
42018;SDS011;27703;51.980;5.848;2023-04-25T03:48:00;8.52;;;1.00;;
42018;SDS011;27703;51.980;5.848;2023-04-25T03:50:26;12.88;;;1.35;;
42018;SDS011;27703;51.980;5.848;2023-04-25T03:52:51;6.65;;;1.08;;
42018;SDS011;27703;51.980;5.848;2023-04-25T03:55:17;8.65;;;1.30;;
42018;SDS011;27703;51.980;5.848;2023-04-25T03:57:42;15.35;;;1.95;;
42018;SDS011;27703;51.980;5.848;2023-04-25T04:00:08;3.97;;;0.80;;
42018;SDS011;27703;51.980;5.848;2023-04-25T04:02:34;10.35;;;1.58;;
42018;SDS011;27703;51.980;5.848;2023-04-25T04:05:01;8.35;;;1.25;;
42018;SDS011;27703;51.980;5.848;2023-04-25T04:07:27;12.43;;;1.63;;
42018;SDS011;27703;51.980;5.848;2023-04-25T04:09:53;10.73;;;0.88;;
42018;SDS011;27703;51.980;5.848;2023-04-25T04:12:18;6.45;;;1.40;;
42018;SDS011;27703;51.980;5.848;2023-04-25T04:14:44;5.78;;;0.80;;
42018;SDS011;27703;51.980;5.848;2023-04-25T04:17:09;6.43;;;1.00;;
42018;SDS011;27703;51.980;5.848;2023-04-25T04:19:35;9.43;;;1.33;;
42018;SDS011;27703;51.980;5.848;2023-04-25T04:22:01;9.40;;;1.20;;
42018;SDS011;27703;51.980;5.848;2023-04-25T04:24:26;9.18;;;1.05;;
42018;SDS011;27703;51.980;5.848;2023-04-25T04:26:52;4.28;;;1.13;;
42018;SDS011;27703;51.980;5.848;2023-04-25T04:29:17;6.55;;;1.23;;
42018;SDS011;27703;51.980;5.848;2023-04-25T04:31:49;12.20;;;0.93;;
42018;SDS011;27703;51.980;5.848;2023-04-25T04:34:15;7.32;;;1.02;;
42018;SDS011;27703;51.980;5.848;2023-04-25T04:36:44;9.40;;;1.15;;
42018;SDS011;27703;51.980;5.848;2023-04-25T04:39:11;6.72;;;0.95;;
42018;SDS011;27703;51.980;5.848;2023-04-25T04:41:37;9.57;;;1.00;;
42018;SDS011;27703;51.980;5.848;2023-04-25T04:44:03;9.48;;;1.10;;
42018;SDS011;27703;51.980;5.848;2023-04-25T04:46:29;13.38;;;1.40;;
42018;SDS011;27703;51.980;5.848;2023-04-25T04:48:56;7.57;;;0.95;;
42018;SDS011;27703;51.980;5.848;2023-04-25T04:51:21;9.55;;;1.25;;
42018;SDS011;27703;51.980;5.848;2023-04-25T04:53:47;10.13;;;1.48;;
42018;SDS011;27703;51.980;5.848;2023-04-25T04:56:12;12.70;;;1.27;;
42018;SDS011;27703;51.980;5.848;2023-04-25T04:58:38;6.07;;;0.90;;
42018;SDS011;27703;51.980;5.848;2023-04-25T05:01:03;5.95;;;0.88;;
42018;SDS011;27703;51.980;5.848;2023-04-25T05:03:29;7.63;;;1.08;;
42018;SDS011;27703;51.980;5.848;2023-04-25T05:05:55;6.35;;;1.15;;
42018;SDS011;27703;51.980;5.848;2023-04-25T05:08:20;9.20;;;1.48;;
42018;SDS011;27703;51.980;5.848;2023-04-25T05:10:46;8.38;;;0.77;;
42018;SDS011;27703;51.980;5.848;2023-04-25T05:13:11;8.43;;;0.90;;
42018;SDS011;27703;51.980;5.848;2023-04-25T05:15:37;7.28;;;1.05;;
42018;SDS011;27703;51.980;5.848;2023-04-25T05:18:02;5.82;;;0.95;;
42018;SDS011;27703;51.980;5.848;2023-04-25T05:20:28;4.60;;;0.65;;
42018;SDS011;27703;51.980;5.848;2023-04-25T05:22:53;7.22;;;1.02;;
42018;SDS011;27703;51.980;5.848;2023-04-25T05:25:19;4.40;;;1.33;;
42018;SDS011;27703;51.980;5.848;2023-04-25T05:27:45;5.35;;;1.20;;
42018;SDS011;27703;51.980;5.848;2023-04-25T05:30:10;7.00;;;1.00;;
42018;SDS011;27703;51.980;5.848;2023-04-25T05:32:36;9.45;;;1.45;;
42018;SDS011;27703;51.980;5.848;2023-04-25T05:35:02;5.65;;;1.02;;
42018;SDS011;27703;51.980;5.848;2023-04-25T05:37:28;9.07;;;1.10;;
42018;SDS011;27703;51.980;5.848;2023-04-25T05:39:55;4.65;;;1.25;;
42018;SDS011;27703;51.980;5.848;2023-04-25T05:42:21;10.18;;;3.83;;
42018;SDS011;27703;51.980;5.848;2023-04-25T05:44:47;3.38;;;1.13;;
42018;SDS011;27703;51.980;5.848;2023-04-25T05:47:12;11.02;;;1.23;;
42018;SDS011;27703;51.980;5.848;2023-04-25T05:49:38;10.70;;;2.03;;
42018;SDS011;27703;51.980;5.848;2023-04-25T05:52:03;6.93;;;2.45;;
42018;SDS011;27703;51.980;5.848;2023-04-25T05:54:29;8.15;;;1.55;;
42018;SDS011;27703;51.980;5.848;2023-04-25T05:56:56;4.70;;;0.70;;
42018;SDS011;27703;51.980;5.848;2023-04-25T05:59:22;8.18;;;1.17;;
42018;SDS011;27703;51.980;5.848;2023-04-25T06:01:48;9.23;;;1.23;;
42018;SDS011;27703;51.980;5.848;2023-04-25T06:04:13;3.92;;;0.93;;
42018;SDS011;27703;51.980;5.848;2023-04-25T06:06:39;4.55;;;0.80;;
42018;SDS011;27703;51.980;5.848;2023-04-25T06:09:04;3.20;;;0.77;;
42018;SDS011;27703;51.980;5.848;2023-04-25T06:11:30;5.07;;;0.85;;
42018;SDS011;27703;51.980;5.848;2023-04-25T06:13:56;4.95;;;0.90;;
42018;SDS011;27703;51.980;5.848;2023-04-25T06:16:21;4.15;;;0.57;;
42018;SDS011;27703;51.980;5.848;2023-04-25T06:18:47;5.53;;;0.90;;
42018;SDS011;27703;51.980;5.848;2023-04-25T06:21:12;6.75;;;0.70;;
42018;SDS011;27703;51.980;5.848;2023-04-25T06:23:38;3.22;;;0.60;;
42018;SDS011;27703;51.980;5.848;2023-04-25T06:26:03;3.25;;;0.50;;
42018;SDS011;27703;51.980;5.848;2023-04-25T06:28:29;4.57;;;0.60;;
42018;SDS011;27703;51.980;5.848;2023-04-25T06:30:54;2.67;;;0.55;;
42018;SDS011;27703;51.980;5.848;2023-04-25T06:33:20;4.50;;;0.70;;
42018;SDS011;27703;51.980;5.848;2023-04-25T06:35:46;7.35;;;0.80;;
42018;SDS011;27703;51.980;5.848;2023-04-25T06:38:12;5.18;;;0.70;;
42018;SDS011;27703;51.980;5.848;2023-04-25T06:40:38;3.38;;;0.60;;
42018;SDS011;27703;51.980;5.848;2023-04-25T06:43:04;2.72;;;0.88;;
42018;SDS011;27703;51.980;5.848;2023-04-25T06:45:29;8.48;;;1.08;;
42018;SDS011;27703;51.980;5.848;2023-04-25T06:47:55;5.97;;;0.80;;
42018;SDS011;27703;51.980;5.848;2023-04-25T06:50:21;6.40;;;0.70;;
42018;SDS011;27703;51.980;5.848;2023-04-25T06:52:46;4.72;;;0.82;;
42018;SDS011;27703;51.980;5.848;2023-04-25T06:55:12;3.78;;;0.60;;
42018;SDS011;27703;51.980;5.848;2023-04-25T06:57:37;5.05;;;0.60;;
42018;SDS011;27703;51.980;5.848;2023-04-25T07:00:03;6.30;;;0.93;;
42018;SDS011;27703;51.980;5.848;2023-04-25T07:02:30;5.07;;;0.80;;
42018;SDS011;27703;51.980;5.848;2023-04-25T07:04:56;3.58;;;0.60;;
42018;SDS011;27703;51.980;5.848;2023-04-25T07:07:24;2.53;;;0.60;;
42018;SDS011;27703;51.980;5.848;2023-04-25T07:09:50;5.18;;;0.40;;
42018;SDS011;27703;51.980;5.848;2023-04-25T07:12:16;4.80;;;0.77;;
42018;SDS011;27703;51.980;5.848;2023-04-25T07:14:41;4.20;;;0.50;;
42018;SDS011;27703;51.980;5.848;2023-04-25T07:17:07;5.10;;;0.47;;
42018;SDS011;27703;51.980;5.848;2023-04-25T07:19:32;8.05;;;0.68;;
42018;SDS011;27703;51.980;5.848;2023-04-25T07:21:58;9.18;;;0.60;;
42018;SDS011;27703;51.980;5.848;2023-04-25T07:24:23;4.65;;;0.60;;
42018;SDS011;27703;51.980;5.848;2023-04-25T07:26:49;3.95;;;0.55;;
42018;SDS011;27703;51.980;5.848;2023-04-25T07:29:15;4.82;;;0.57;;
42018;SDS011;27703;51.980;5.848;2023-04-25T07:31:40;5.68;;;0.60;;
42018;SDS011;27703;51.980;5.848;2023-04-25T07:34:06;6.80;;;0.40;;
42018;SDS011;27703;51.980;5.848;2023-04-25T07:36:32;6.25;;;0.40;;
42018;SDS011;27703;51.980;5.848;2023-04-25T07:38:57;2.17;;;0.35;;
42018;SDS011;27703;51.980;5.848;2023-04-25T07:41:23;4.57;;;0.40;;
42018;SDS011;27703;51.980;5.848;2023-04-25T07:43:49;7.75;;;0.60;;
42018;SDS011;27703;51.980;5.848;2023-04-25T07:46:14;2.70;;;0.30;;
42018;SDS011;27703;51.980;5.848;2023-04-25T07:48:40;6.78;;;0.63;;
42018;SDS011;27703;51.980;5.848;2023-04-25T07:51:05;7.25;;;0.38;;
42018;SDS011;27703;51.980;5.848;2023-04-25T07:53:32;3.20;;;0.30;;
42018;SDS011;27703;51.980;5.848;2023-04-25T07:55:59;3.38;;;0.40;;
42018;SDS011;27703;51.980;5.848;2023-04-25T07:58:25;4.68;;;0.30;;
42018;SDS011;27703;51.980;5.848;2023-04-25T08:00:50;2.95;;;0.30;;
42018;SDS011;27703;51.980;5.848;2023-04-25T08:03:16;5.70;;;0.32;;
42018;SDS011;27703;51.980;5.848;2023-04-25T08:05:41;3.72;;;0.30;;
42018;SDS011;27703;51.980;5.848;2023-04-25T08:08:07;6.45;;;0.30;;
42018;SDS011;27703;51.980;5.848;2023-04-25T08:10:33;6.38;;;0.57;;
42018;SDS011;27703;51.980;5.848;2023-04-25T08:12:59;6.05;;;0.30;;
42018;SDS011;27703;51.980;5.848;2023-04-25T08:15:25;4.78;;;0.40;;
42018;SDS011;27703;51.980;5.848;2023-04-25T08:17:51;4.63;;;0.30;;
42018;SDS011;27703;51.980;5.848;2023-04-25T08:20:16;5.13;;;0.30;;
42018;SDS011;27703;51.980;5.848;2023-04-25T08:22:42;3.35;;;0.20;;
42018;SDS011;27703;51.980;5.848;2023-04-25T08:25:08;5.40;;;0.40;;
42018;SDS011;27703;51.980;5.848;2023-04-25T08:27:33;4.38;;;0.30;;
42018;SDS011;27703;51.980;5.848;2023-04-25T08:29:59;4.10;;;0.30;;
42018;SDS011;27703;51.980;5.848;2023-04-25T08:32:25;8.07;;;0.30;;
42018;SDS011;27703;51.980;5.848;2023-04-25T08:34:51;3.38;;;0.20;;
42018;SDS011;27703;51.980;5.848;2023-04-25T08:37:19;1.83;;;0.20;;
42018;SDS011;27703;51.980;5.848;2023-04-25T08:39:45;2.03;;;0.20;;
42018;SDS011;27703;51.980;5.848;2023-04-25T08:42:13;3.00;;;0.28;;
42018;SDS011;27703;51.980;5.848;2023-04-25T08:44:40;1.67;;;0.20;;
42018;SDS011;27703;51.980;5.848;2023-04-25T08:47:05;1.23;;;0.20;;
42018;SDS011;27703;51.980;5.848;2023-04-25T08:49:31;6.28;;;0.40;;
42018;SDS011;27703;51.980;5.848;2023-04-25T08:51:59;2.83;;;0.20;;
42018;SDS011;27703;51.980;5.848;2023-04-25T08:54:26;4.53;;;0.30;;
42018;SDS011;27703;51.980;5.848;2023-04-25T08:56:53;2.42;;;0.20;;
42018;SDS011;27703;51.980;5.848;2023-04-25T08:59:21;2.38;;;0.20;;
42018;SDS011;27703;51.980;5.848;2023-04-25T09:01:48;3.67;;;0.30;;
42018;SDS011;27703;51.980;5.848;2023-04-25T09:04:14;1.42;;;0.20;;
42018;SDS011;27703;51.980;5.848;2023-04-25T09:06:40;5.20;;;0.30;;
42018;SDS011;27703;51.980;5.848;2023-04-25T09:09:07;5.47;;;0.25;;
42018;SDS011;27703;51.980;5.848;2023-04-25T09:11:34;3.45;;;0.50;;
42018;SDS011;27703;51.980;5.848;2023-04-25T09:14:17;9.57;;;0.47;;
42018;SDS011;27703;51.980;5.848;2023-04-25T09:19:24;1.48;;;0.20;;
42018;SDS011;27703;51.980;5.848;2023-04-25T09:21:58;4.47;;;0.32;;
42018;SDS011;27703;51.980;5.848;2023-04-25T09:24:35;3.03;;;0.55;;
42018;SDS011;27703;51.980;5.848;2023-04-25T09:27:03;6.32;;;0.20;;
42018;SDS011;27703;51.980;5.848;2023-04-25T09:29:33;3.40;;;0.20;;
42018;SDS011;27703;51.980;5.848;2023-04-25T09:32:16;5.60;;;0.68;;
42018;SDS011;27703;51.980;5.848;2023-04-25T09:34:49;2.55;;;0.20;;
42018;SDS011;27703;51.980;5.848;2023-04-25T09:37:37;2.28;;;0.20;;
42018;SDS011;27703;51.980;5.848;2023-04-25T09:40:04;4.97;;;0.30;;
42018;SDS011;27703;51.980;5.848;2023-04-25T09:42:32;1.80;;;0.17;;
42018;SDS011;27703;51.980;5.848;2023-04-25T09:45:01;3.13;;;0.20;;
42018;SDS011;27703;51.980;5.848;2023-04-25T09:47:27;2.13;;;0.20;;
42018;SDS011;27703;51.980;5.848;2023-04-25T09:49:53;5.13;;;0.30;;
42018;SDS011;27703;51.980;5.848;2023-04-25T09:52:20;3.75;;;0.30;;
42018;SDS011;27703;51.980;5.848;2023-04-25T09:54:50;3.13;;;0.45;;
42018;SDS011;27703;51.980;5.848;2023-04-25T09:57:20;1.38;;;0.38;;
42018;SDS011;27703;51.980;5.848;2023-04-25T10:02:14;2.13;;;0.20;;
42018;SDS011;27703;51.980;5.848;2023-04-25T10:04:44;4.15;;;0.20;;
42018;SDS011;27703;51.980;5.848;2023-04-25T10:07:12;5.00;;;0.20;;
42018;SDS011;27703;51.980;5.848;2023-04-25T10:09:38;4.82;;;0.20;;
42018;SDS011;27703;51.980;5.848;2023-04-25T10:12:05;1.73;;;0.13;;
42018;SDS011;27703;51.980;5.848;2023-04-25T10:14:32;4.93;;;0.30;;
42018;SDS011;27703;51.980;5.848;2023-04-25T10:16:58;2.22;;;0.20;;
42018;SDS011;27703;51.980;5.848;2023-04-25T10:19:25;2.85;;;0.10;;
42018;SDS011;27703;51.980;5.848;2023-04-25T10:22:13;2.58;;;0.30;;
42018;SDS011;27703;51.980;5.848;2023-04-25T10:24:43;1.98;;;0.10;;
42018;SDS011;27703;51.980;5.848;2023-04-25T10:27:11;3.45;;;0.17;;
42018;SDS011;27703;51.980;5.848;2023-04-25T10:29:38;4.85;;;0.20;;
42018;SDS011;27703;51.980;5.848;2023-04-25T10:32:03;2.97;;;0.20;;
42018;SDS011;27703;51.980;5.848;2023-04-25T10:34:42;1.02;;;0.10;;
42018;SDS011;27703;51.980;5.848;2023-04-25T10:37:11;2.38;;;0.10;;
42018;SDS011;27703;51.980;5.848;2023-04-25T10:39:38;2.03;;;0.30;;
42018;SDS011;27703;51.980;5.848;2023-04-25T10:42:05;1.25;;;0.00;;
42018;SDS011;27703;51.980;5.848;2023-04-25T10:44:32;2.08;;;0.20;;
42018;SDS011;27703;51.980;5.848;2023-04-25T10:46:59;1.17;;;0.20;;
42018;SDS011;27703;51.980;5.848;2023-04-25T10:52:14;2.72;;;0.20;;
42018;SDS011;27703;51.980;5.848;2023-04-25T10:57:26;1.05;;;0.10;;
42018;SDS011;27703;51.980;5.848;2023-04-25T11:02:30;1.95;;;0.15;;
42018;SDS011;27703;51.980;5.848;2023-04-25T11:04:56;3.33;;;0.10;;
42018;SDS011;27703;51.980;5.848;2023-04-25T11:09:56;3.95;;;0.47;;
42018;SDS011;27703;51.980;5.848;2023-04-25T11:12:22;2.40;;;0.10;;
42018;SDS011;27703;51.980;5.848;2023-04-25T11:14:49;3.40;;;0.20;;
42018;SDS011;27703;51.980;5.848;2023-04-25T11:17:15;1.58;;;0.17;;
42018;SDS011;27703;51.980;5.848;2023-04-25T11:19:41;2.15;;;0.17;;
42018;SDS011;27703;51.980;5.848;2023-04-25T11:22:06;1.30;;;0.20;;
42018;SDS011;27703;51.980;5.848;2023-04-25T11:24:33;1.20;;;0.10;;
42018;SDS011;27703;51.980;5.848;2023-04-25T11:27:01;1.25;;;0.20;;
42018;SDS011;27703;51.980;5.848;2023-04-25T11:29:31;2.00;;;0.20;;
42018;SDS011;27703;51.980;5.848;2023-04-25T11:31:57;1.45;;;0.10;;
42018;SDS011;27703;51.980;5.848;2023-04-25T11:34:24;0.93;;;0.10;;
42018;SDS011;27703;51.980;5.848;2023-04-25T11:36:50;1.75;;;0.10;;
42018;SDS011;27703;51.980;5.848;2023-04-25T11:39:19;1.55;;;0.30;;
42018;SDS011;27703;51.980;5.848;2023-04-25T11:41:45;2.08;;;0.15;;
42018;SDS011;27703;51.980;5.848;2023-04-25T11:44:12;1.15;;;0.10;;
42018;SDS011;27703;51.980;5.848;2023-04-25T11:46:41;1.73;;;0.10;;
42018;SDS011;27703;51.980;5.848;2023-04-25T11:49:07;2.08;;;0.20;;
42018;SDS011;27703;51.980;5.848;2023-04-25T11:51:39;0.80;;;0.38;;
42018;SDS011;27703;51.980;5.848;2023-04-25T11:54:09;0.50;;;0.10;;
42018;SDS011;27703;51.980;5.848;2023-04-25T11:56:36;2.67;;;0.20;;
42018;SDS011;27703;51.980;5.848;2023-04-25T11:59:03;1.95;;;0.10;;
42018;SDS011;27703;51.980;5.848;2023-04-25T12:01:31;1.15;;;0.10;;
42018;SDS011;27703;51.980;5.848;2023-04-25T12:03:58;1.27;;;0.17;;
42018;SDS011;27703;51.980;5.848;2023-04-25T12:06:36;2.47;;;0.10;;
42018;SDS011;27703;51.980;5.848;2023-04-25T12:09:06;2.38;;;0.25;;
42018;SDS011;27703;51.980;5.848;2023-04-25T12:11:39;2.38;;;0.15;;
42018;SDS011;27703;51.980;5.848;2023-04-25T12:14:06;2.83;;;0.20;;
42018;SDS011;27703;51.980;5.848;2023-04-25T12:16:45;1.88;;;0.10;;
42018;SDS011;27703;51.980;5.848;2023-04-25T12:19:14;0.73;;;0.10;;
42018;SDS011;27703;51.980;5.848;2023-04-25T12:21:41;1.90;;;0.10;;
42018;SDS011;27703;51.980;5.848;2023-04-25T12:24:11;1.05;;;0.10;;
42018;SDS011;27703;51.980;5.848;2023-04-25T12:26:52;1.08;;;0.10;;
42018;SDS011;27703;51.980;5.848;2023-04-25T12:29:23;2.40;;;0.15;;
42018;SDS011;27703;51.980;5.848;2023-04-25T12:31:51;2.70;;;0.20;;
42018;SDS011;27703;51.980;5.848;2023-04-25T12:34:18;0.73;;;0.10;;
42018;SDS011;27703;51.980;5.848;2023-04-25T12:36:47;1.90;;;0.10;;
42018;SDS011;27703;51.980;5.848;2023-04-25T12:41:49;2.35;;;0.10;;
42018;SDS011;27703;51.980;5.848;2023-04-25T12:44:15;4.00;;;0.20;;
42018;SDS011;27703;51.980;5.848;2023-04-25T12:46:42;2.03;;;0.20;;
42018;SDS011;27703;51.980;5.848;2023-04-25T12:49:08;0.93;;;0.10;;
42018;SDS011;27703;51.980;5.848;2023-04-25T12:51:37;4.20;;;0.20;;
42018;SDS011;27703;51.980;5.848;2023-04-25T12:54:03;3.22;;;0.20;;
42018;SDS011;27703;51.980;5.848;2023-04-25T12:56:30;1.17;;;0.10;;
42018;SDS011;27703;51.980;5.848;2023-04-25T12:58:56;2.50;;;0.30;;
42018;SDS011;27703;51.980;5.848;2023-04-25T13:01:22;0.85;;;0.20;;
42018;SDS011;27703;51.980;5.848;2023-04-25T13:03:48;1.20;;;0.10;;
42018;SDS011;27703;51.980;5.848;2023-04-25T13:06:14;0.38;;;0.20;;
42018;SDS011;27703;51.980;5.848;2023-04-25T13:08:40;1.75;;;0.20;;
42018;SDS011;27703;51.980;5.848;2023-04-25T13:11:06;2.08;;;0.20;;
42018;SDS011;27703;51.980;5.848;2023-04-25T13:13:32;1.13;;;0.17;;
42018;SDS011;27703;51.980;5.848;2023-04-25T13:15:59;1.17;;;0.10;;
42018;SDS011;27703;51.980;5.848;2023-04-25T13:18:25;2.65;;;0.30;;
42018;SDS011;27703;51.980;5.848;2023-04-25T13:20:54;9.13;;;0.63;;
42018;SDS011;27703;51.980;5.848;2023-04-25T13:23:19;3.33;;;0.20;;
42018;SDS011;27703;51.980;5.848;2023-04-25T13:25:45;3.30;;;0.30;;
42018;SDS011;27703;51.980;5.848;2023-04-25T13:28:11;3.28;;;0.25;;
42018;SDS011;27703;51.980;5.848;2023-04-25T13:30:37;1.70;;;0.15;;
42018;SDS011;27703;51.980;5.848;2023-04-25T13:33:03;1.40;;;0.50;;
42018;SDS011;27703;51.980;5.848;2023-04-25T13:35:31;1.75;;;0.10;;
42018;SDS011;27703;51.980;5.848;2023-04-25T13:37:57;1.25;;;0.08;;
42018;SDS011;27703;51.980;5.848;2023-04-25T13:40:23;3.55;;;0.10;;
42018;SDS011;27703;51.980;5.848;2023-04-25T13:42:48;1.95;;;0.20;;
42018;SDS011;27703;51.980;5.848;2023-04-25T13:45:14;1.27;;;0.10;;
42018;SDS011;27703;51.980;5.848;2023-04-25T13:47:40;0.80;;;0.10;;
42018;SDS011;27703;51.980;5.848;2023-04-25T13:50:05;1.98;;;0.20;;
42018;SDS011;27703;51.980;5.848;2023-04-25T13:52:32;2.95;;;0.15;;
42018;SDS011;27703;51.980;5.848;2023-04-25T13:54:57;1.45;;;0.20;;
42018;SDS011;27703;51.980;5.848;2023-04-25T13:57:24;3.72;;;0.20;;
42018;SDS011;27703;51.980;5.848;2023-04-25T13:59:51;3.05;;;0.10;;
42018;SDS011;27703;51.980;5.848;2023-04-25T14:02:16;0.63;;;0.05;;
42018;SDS011;27703;51.980;5.848;2023-04-25T14:04:42;1.35;;;0.10;;
42018;SDS011;27703;51.980;5.848;2023-04-25T14:07:08;0.43;;;0.10;;
42018;SDS011;27703;51.980;5.848;2023-04-25T14:09:35;1.92;;;0.10;;
42018;SDS011;27703;51.980;5.848;2023-04-25T14:12:01;2.25;;;0.03;;
42018;SDS011;27703;51.980;5.848;2023-04-25T14:14:27;3.22;;;0.30;;
42018;SDS011;27703;51.980;5.848;2023-04-25T14:16:53;1.55;;;0.20;;
42018;SDS011;27703;51.980;5.848;2023-04-25T14:19:19;3.05;;;0.30;;
42018;SDS011;27703;51.980;5.848;2023-04-25T14:21:46;2.30;;;0.13;;
42018;SDS011;27703;51.980;5.848;2023-04-25T14:24:11;2.03;;;0.10;;
42018;SDS011;27703;51.980;5.848;2023-04-25T14:26:38;2.35;;;0.20;;
42018;SDS011;27703;51.980;5.848;2023-04-25T14:29:05;0.73;;;0.10;;
42018;SDS011;27703;51.980;5.848;2023-04-25T14:31:32;1.05;;;0.20;;
42018;SDS011;27703;51.980;5.848;2023-04-25T14:33:58;1.23;;;0.43;;
42018;SDS011;27703;51.980;5.848;2023-04-25T14:36:24;2.25;;;0.10;;
42018;SDS011;27703;51.980;5.848;2023-04-25T14:38:51;2.38;;;0.30;;
42018;SDS011;27703;51.980;5.848;2023-04-25T14:41:17;1.30;;;0.13;;
42018;SDS011;27703;51.980;5.848;2023-04-25T14:43:42;1.77;;;0.20;;
42018;SDS011;27703;51.980;5.848;2023-04-25T14:46:08;1.67;;;0.17;;
42018;SDS011;27703;51.980;5.848;2023-04-25T14:48:34;4.05;;;0.20;;
42018;SDS011;27703;51.980;5.848;2023-04-25T14:51:00;3.15;;;0.40;;
42018;SDS011;27703;51.980;5.848;2023-04-25T14:53:25;3.50;;;0.10;;
42018;SDS011;27703;51.980;5.848;2023-04-25T14:55:52;3.85;;;0.30;;
42018;SDS011;27703;51.980;5.848;2023-04-25T14:58:17;2.17;;;0.30;;
42018;SDS011;27703;51.980;5.848;2023-04-25T15:00:43;3.17;;;0.20;;